Time;durP1;ratioP1;P1;durP2;ratioP2;P2;SDS_P1;SDS_P2;PMS_P1;PMS_P2;Temp;Humidity;BMP_temperature;BMP_pressure;BME280_temperature;BME280_humidity;BME280_pressure;Samples;Min_cycle;Max_cycle;Signal;HPM_P1;HPM_P2
2022/03/07 00:01:10;;;;;;;17.17;10.30;;;-0.10;46.30;;;;;;5079490;28;20203;-59
2022/03/07 00:03:36;;;;;;;16.13;10.40;;;-0.20;46.50;;;;;;5077847;28;20359;-58
2022/03/07 00:06:02;;;;;;;13.23;9.90;;;-0.20;46.70;;;;;;5079753;28;20253;-58
2022/03/07 00:08:28;;;;;;;14.47;9.90;;;-0.20;46.90;;;;;;5079296;28;20194;-58
2022/03/07 00:10:54;;;;;;;17.80;9.70;;;-0.30;46.90;;;;;;5078566;28;20199;-58
2022/03/07 00:13:21;;;;;;;15.20;9.90;;;-0.30;46.90;;;;;;5079278;28;20439;-57
2022/03/07 00:15:46;;;;;;;17.10;9.93;;;-0.30;46.90;;;;;;5078139;28;20218;-58
2022/03/07 00:18:12;;;;;;;17.60;10.60;;;-0.30;46.90;;;;;;5079639;28;20516;-56
2022/03/07 00:20:38;;;;;;;16.13;9.40;;;-0.30;47.10;;;;;;5079265;28;20215;-57
2022/03/07 00:23:04;;;;;;;14.70;9.40;;;-0.40;47.00;;;;;;5079901;28;20267;-57
2022/03/07 00:25:29;;;;;;;17.17;10.33;;;-0.40;47.70;;;;;;5074920;28;20218;-58
2022/03/07 00:27:55;;;;;;;18.23;10.47;;;-0.40;47.20;;;;;;5081482;28;20172;-58
2022/03/07 00:30:21;;;;;;;16.80;10.70;;;-0.40;47.40;;;;;;5082040;28;20235;-59
2022/03/07 00:32:47;;;;;;;16.53;10.23;;;-0.50;47.50;;;;;;5081334;28;20180;-58
2022/03/07 00:35:14;;;;;;;16.00;9.93;;;-0.50;47.60;;;;;;5080800;28;20863;-58
2022/03/07 00:37:41;;;;;;;17.13;10.60;;;-0.50;47.70;;;;;;5082179;28;20183;-58
2022/03/07 00:40:09;;;;;;;16.13;11.27;;;-0.60;47.70;;;;;;5084439;28;20449;-58
2022/03/07 00:42:38;;;;;;;19.10;11.30;;;-0.60;47.80;;;;;;5082104;28;20469;-58
2022/03/07 00:45:07;;;;;;;21.53;11.30;;;-0.60;47.90;;;;;;5085190;28;20437;-59
2022/03/07 00:47:34;;;;;;;15.63;10.00;;;-0.60;48.00;;;;;;5081457;28;20425;-58
2022/03/07 00:50:01;;;;;;;16.83;10.50;;;-0.60;48.10;;;;;;5083724;28;20454;-57
2022/03/07 00:52:27;;;;;;;19.93;11.10;;;-0.70;47.90;;;;;;5085438;28;20420;-58
2022/03/07 00:54:52;;;;;;;16.53;11.00;;;-0.70;48.00;;;;;;5099411;28;20486;-58
2022/03/07 00:57:18;;;;;;;15.23;10.10;;;-0.70;48.10;;;;;;5106156;28;20262;-58
2022/03/07 00:59:44;;;;;;;21.90;11.60;;;-0.70;48.10;;;;;;5096956;28;20199;-57
2022/03/07 01:02:10;;;;;;;18.73;11.00;;;-0.70;48.10;;;;;;5091686;28;20195;-58
2022/03/07 01:04:36;;;;;;;14.27;9.70;;;-0.70;48.20;;;;;;5103426;28;20559;-57
2022/03/07 01:07:02;;;;;;;15.80;10.50;;;-0.70;48.20;;;;;;5089998;28;20970;-58
2022/03/07 01:09:27;;;;;;;17.10;10.47;;;-0.80;48.10;;;;;;5096009;28;20428;-58
2022/03/07 01:11:53;;;;;;;17.00;10.87;;;-0.80;48.30;;;;;;5092979;28;20434;-58
2022/03/07 01:14:19;;;;;;;17.00;10.07;;;-0.80;48.40;;;;;;5093927;28;20187;-58
2022/03/07 01:16:45;;;;;;;18.13;10.20;;;-0.80;48.50;;;;;;5105763;28;20221;-58
2022/03/07 01:19:10;;;;;;;18.60;10.23;;;-0.90;48.40;;;;;;5083948;28;20215;-56
2022/03/07 01:21:38;;;;;;;15.73;10.80;;;-0.90;48.50;;;;;;5087930;28;20216;-59
2022/03/07 01:24:04;;;;;;;15.53;10.17;;;-0.90;48.60;;;;;;5088396;28;20564;-58
2022/03/07 01:26:30;;;;;;;17.90;11.17;;;-0.90;48.70;;;;;;5105543;28;20432;-58
2022/03/07 01:28:56;;;;;;;19.83;11.23;;;-0.90;48.80;;;;;;5097690;28;20429;-59
2022/03/07 01:31:21;;;;;;;20.93;11.47;;;-1.00;48.70;;;;;;5106572;28;21979;-57
2022/03/07 01:33:47;;;;;;;17.60;11.37;;;-1.00;48.70;;;;;;5082387;28;20601;-57
2022/03/07 01:36:13;;;;;;;21.70;11.60;;;-1.00;48.70;;;;;;5082660;28;20195;-58
2022/03/07 01:38:38;;;;;;;15.90;10.40;;;-1.00;48.80;;;;;;5090920;28;20694;-57
2022/03/07 01:41:04;;;;;;;16.37;10.80;;;-1.00;49.00;;;;;;5081167;28;20201;-57
2022/03/07 01:43:30;;;;;;;15.17;10.60;;;-1.10;49.00;;;;;;5087184;28;20172;-58
2022/03/07 01:45:56;;;;;;;19.77;11.90;;;-1.10;49.10;;;;;;5082212;28;20881;-58
2022/03/07 01:48:21;;;;;;;19.10;11.20;;;-1.10;49.20;;;;;;5084622;28;20455;-58
2022/03/07 01:50:48;;;;;;;20.00;10.93;;;-1.10;49.20;;;;;;5084608;28;20290;-58
2022/03/07 01:53:14;;;;;;;14.63;10.10;;;-1.20;49.20;;;;;;5093103;28;20241;-58
2022/03/07 01:55:40;;;;;;;17.63;11.00;;;-1.20;49.20;;;;;;5086391;28;20799;-58
2022/03/07 01:58:06;;;;;;;16.97;10.50;;;-1.20;49.40;;;;;;5103085;28;20180;-58
2022/03/07 02:00:32;;;;;;;16.80;10.57;;;-1.20;49.30;;;;;;5099026;28;20459;-58
2022/03/07 02:02:58;;;;;;;15.63;10.80;;;-1.20;49.40;;;;;;5101683;28;20176;-58
2022/03/07 02:05:23;;;;;;;17.40;10.80;;;-1.20;49.40;;;;;;5079522;28;20176;-58
2022/03/07 02:07:49;;;;;;;14.13;9.60;;;-1.20;49.40;;;;;;5081202;28;20599;-58
2022/03/07 02:10:15;;;;;;;17.33;10.10;;;-1.20;49.90;;;;;;5091440;28;20201;-58
2022/03/07 02:12:40;;;;;;;16.07;11.33;;;-1.20;49.40;;;;;;5095669;28;20182;-58
2022/03/07 02:15:07;;;;;;;17.73;10.63;;;-1.30;49.50;;;;;;5078836;28;20675;-59
2022/03/07 02:17:33;;;;;;;15.90;10.50;;;-1.30;49.50;;;;;;5087047;28;20652;-58
2022/03/07 02:19:59;;;;;;;15.70;11.47;;;-1.30;49.50;;;;;;5096531;28;20428;-58
2022/03/07 02:22:25;;;;;;;21.90;10.80;;;-1.30;49.60;;;;;;5102402;28;20420;-58
2022/03/07 02:24:51;;;;;;;16.17;11.50;;;-1.30;49.70;;;;;;5097686;28;20183;-58
2022/03/07 02:27:18;;;;;;;19.57;11.33;;;-1.30;49.80;;;;;;5111225;28;20189;-58
2022/03/07 02:29:45;;;;;;;31.47;12.57;;;-1.40;49.80;;;;;;5085862;28;20418;-57
2022/03/07 02:32:11;;;;;;;20.13;11.77;;;-1.40;50.00;;;;;;5089604;28;20425;-58
2022/03/07 02:34:37;;;;;;;18.00;11.47;;;-1.40;50.10;;;;;;5083783;28;20486;-58
2022/03/07 02:37:03;;;;;;;23.93;12.40;;;-1.50;50.10;;;;;;5088907;28;20825;-58
2022/03/07 02:39:28;;;;;;;18.00;11.90;;;-1.50;50.30;;;;;;5089801;28;20184;-57
2022/03/07 02:41:55;;;;;;;17.10;11.20;;;-1.50;50.40;;;;;;5093201;28;20811;-58
2022/03/07 02:44:21;;;;;;;15.03;10.67;;;-1.50;50.50;;;;;;5098349;28;20179;-59
2022/03/07 02:46:47;;;;;;;18.33;11.80;;;-1.50;50.50;;;;;;5111460;28;20504;-58
2022/03/07 02:49:12;;;;;;;19.63;12.13;;;-1.60;50.40;;;;;;5104576;28;20446;-58
2022/03/07 02:51:38;;;;;;;18.07;11.47;;;-1.60;50.50;;;;;;5089753;28;20201;-59
2022/03/07 02:54:04;;;;;;;22.57;11.20;;;-1.60;50.60;;;;;;5080626;28;20650;-59
2022/03/07 02:56:30;;;;;;;20.20;12.33;;;-1.60;50.70;;;;;;5083128;28;20736;-59
2022/03/07 02:58:56;;;;;;;21.23;11.80;;;-1.60;50.80;;;;;;5085296;28;20439;-59
2022/03/07 03:01:21;;;;;;;16.80;12.27;;;-1.70;50.90;;;;;;5100244;28;20718;-58
2022/03/07 03:03:47;;;;;;;19.13;11.70;;;-1.70;51.00;;;;;;5082841;28;20530;-58
2022/03/07 03:06:13;;;;;;;21.03;12.13;;;-1.70;51.00;;;;;;5092808;28;20187;-58
2022/03/07 03:08:39;;;;;;;21.17;12.47;;;-1.70;51.10;;;;;;5098754;28;21188;-57
2022/03/07 03:11:04;;;;;;;20.77;12.23;;;-1.70;51.20;;;;;;5086434;28;20199;-58
2022/03/07 03:13:30;;;;;;;22.23;12.40;;;-1.70;51.30;;;;;;5085706;28;20418;-57
2022/03/07 03:15:56;;;;;;;23.50;12.50;;;-1.70;51.40;;;;;;5082343;28;20298;-58
2022/03/07 03:18:22;;;;;;;18.20;11.60;;;-1.80;51.40;;;;;;5078107;28;20518;-58
2022/03/07 03:20:50;;;;;;;21.23;13.30;;;-1.80;51.50;;;;;;5077700;28;21026;-58
2022/03/07 03:23:17;;;;;;;23.07;12.87;;;-1.80;51.60;;;;;;5070815;28;20491;-58
2022/03/07 03:25:43;;;;;;;19.90;11.80;;;-1.80;51.60;;;;;;5076493;28;20549;-58
2022/03/07 03:28:08;;;;;;;23.90;12.70;;;-1.80;51.70;;;;;;5077898;28;20524;-58
2022/03/07 03:30:34;;;;;;;18.30;12.60;;;-1.90;51.70;;;;;;5085982;28;20202;-57
2022/03/07 03:33:00;;;;;;;19.47;12.67;;;-1.90;51.80;;;;;;5083869;28;20644;-59
2022/03/07 03:35:26;;;;;;;17.10;11.70;;;-1.90;51.90;;;;;;5101072;28;20534;-58
2022/03/07 03:37:52;;;;;;;20.20;12.70;;;-2.00;52.00;;;;;;5079206;28;20181;-57
2022/03/07 03:40:18;;;;;;;25.53;13.50;;;-2.00;52.10;;;;;;5079463;28;20456;-58
2022/03/07 03:42:44;;;;;;;19.67;12.33;;;-2.00;52.00;;;;;;5078094;28;20796;-58
2022/03/07 03:45:10;;;;;;;18.43;11.40;;;-2.00;52.10;;;;;;5079298;28;20430;-58
2022/03/07 03:47:37;;;;;;;17.37;12.30;;;-2.00;52.20;;;;;;5082095;28;20188;-58
2022/03/07 03:50:08;;;;;;;18.80;12.10;;;-2.00;52.20;;;;;;5085566;28;20492;-58
2022/03/07 03:52:33;;;;;;;22.97;12.77;;;-2.00;52.20;;;;;;5077955;28;20443;-58
2022/03/07 03:55:01;;;;;;;22.70;13.07;;;-2.00;52.30;;;;;;5078042;28;20519;-58
2022/03/07 03:57:27;;;;;;;25.53;12.83;;;-2.10;52.30;;;;;;5076427;28;20191;-58
2022/03/07 03:59:52;;;;;;;20.60;13.30;;;-2.10;52.40;;;;;;5081544;28;20872;-57
2022/03/07 04:02:18;;;;;;;20.20;12.23;;;-2.10;52.40;;;;;;5082984;28;20197;-58
2022/03/07 04:04:44;;;;;;;22.37;12.90;;;-2.10;52.70;;;;;;5080780;28;20588;-58
2022/03/07 04:07:09;;;;;;;23.70;13.53;;;-2.10;52.70;;;;;;5092393;28;20206;-59
2022/03/07 04:09:35;;;;;;;22.13;12.40;;;-2.20;52.70;;;;;;5086361;28;20207;-59
2022/03/07 04:12:01;;;;;;;26.77;13.47;;;-2.10;52.90;;;;;;5089284;28;20298;-57
2022/03/07 04:14:27;;;;;;;20.87;13.47;;;-2.10;52.90;;;;;;5091129;28;20349;-58
2022/03/07 04:16:54;;;;;;;18.80;11.97;;;-2.20;52.90;;;;;;5094803;28;20442;-58
2022/03/07 04:19:19;;;;;;;19.83;12.60;;;-2.20;53.00;;;;;;5089653;28;20905;-58
2022/03/07 04:21:45;;;;;;;21.17;11.80;;;-2.20;53.20;;;;;;5088862;28;20549;-58
2022/03/07 04:24:12;;;;;;;21.33;13.20;;;-2.30;53.40;;;;;;5081318;28;20565;-58
2022/03/07 04:26:39;;;;;;;21.67;13.07;;;-2.30;53.50;;;;;;5086124;28;20195;-58
2022/03/07 04:29:07;;;;;;;21.30;13.13;;;-2.30;53.60;;;;;;5097643;28;20435;-57
2022/03/07 04:31:34;;;;;;;21.17;13.17;;;-2.30;53.70;;;;;;5082940;28;20771;-58
2022/03/07 04:34:00;;;;;;;23.17;13.13;;;-2.30;53.70;;;;;;5091514;28;20433;-58
2022/03/07 04:36:25;;;;;;;23.13;13.63;;;-2.30;54.40;;;;;;5089805;28;20470;-57
2022/03/07 04:38:51;;;;;;;20.47;12.60;;;-2.30;53.90;;;;;;5083069;28;20181;-58
2022/03/07 04:41:17;;;;;;;19.70;11.80;;;-2.30;53.90;;;;;;5081774;28;20724;-57
2022/03/07 04:43:42;;;;;;;22.73;13.50;;;-2.30;54.00;;;;;;5076855;28;20202;-57
2022/03/07 04:46:08;;;;;;;18.30;12.00;;;-2.30;54.20;;;;;;5080885;28;20353;-57
2022/03/07 04:48:35;;;;;;;25.47;13.90;;;-2.30;54.50;;;;;;5083986;28;20623;-58
2022/03/07 04:51:01;;;;;;;23.30;14.17;;;-2.30;54.70;;;;;;5081936;28;20430;-58
2022/03/07 04:53:27;;;;;;;22.50;13.50;;;-2.40;54.70;;;;;;5086869;28;20445;-57
2022/03/07 04:55:52;;;;;;;21.77;11.53;;;-2.40;54.80;;;;;;5081716;28;20968;-58
2022/03/07 04:58:18;;;;;;;24.03;13.83;;;-2.40;55.00;;;;;;5087755;28;20178;-58
2022/03/07 05:00:44;;;;;;;20.63;12.93;;;-2.40;55.10;;;;;;5085015;28;20578;-56
2022/03/07 05:03:10;;;;;;;22.33;13.07;;;-2.30;55.70;;;;;;5081576;28;20235;-59
2022/03/07 05:05:35;;;;;;;19.60;12.40;;;-2.30;56.00;;;;;;5089760;28;20190;-58
2022/03/07 05:08:01;;;;;;;16.90;11.30;;;-2.30;55.80;;;;;;5077885;28;20175;-59
2022/03/07 05:10:27;;;;;;;24.43;12.90;;;-2.30;55.70;;;;;;5080753;28;20353;-58
2022/03/07 05:12:52;;;;;;;20.83;12.70;;;-2.40;55.60;;;;;;5083571;28;20189;-59
2022/03/07 05:15:18;;;;;;;26.43;12.80;;;-2.40;55.60;;;;;;5076796;28;20244;-59
2022/03/07 05:17:46;;;;;;;23.23;13.40;;;-2.40;55.50;;;;;;5088364;28;20185;-58
2022/03/07 05:20:12;;;;;;;17.77;11.77;;;-2.40;55.60;;;;;;5085800;28;20310;-59
2022/03/07 05:22:42;;;;;;;19.27;12.03;;;-2.40;55.70;;;;;;5088853;28;20453;-59
2022/03/07 05:25:09;;;;;;;18.00;12.37;;;-2.40;55.80;;;;;;5086364;28;21024;-58
2022/03/07 05:27:35;;;;;;;30.30;12.43;;;-2.40;55.90;;;;;;5075452;28;21140;-59
2022/03/07 05:30:01;;;;;;;20.87;12.37;;;-2.40;56.00;;;;;;5075782;28;20445;-58
2022/03/07 05:32:27;;;;;;;22.10;12.10;;;-2.40;56.00;;;;;;5076871;28;20312;-57
2022/03/07 05:34:52;;;;;;;22.80;12.97;;;-2.50;55.90;;;;;;5084417;28;20407;-59
2022/03/07 05:37:18;;;;;;;21.83;13.20;;;-2.50;56.10;;;;;;5083138;28;20578;-58
2022/03/07 05:39:44;;;;;;;23.10;13.07;;;-2.50;56.20;;;;;;5092256;28;20178;-59
2022/03/07 05:42:09;;;;;;;26.67;14.30;;;-2.50;56.20;;;;;;5085337;28;20659;-59
2022/03/07 05:44:35;;;;;;;29.10;12.97;;;-2.50;56.30;;;;;;5080321;28;20256;-60
2022/03/07 05:47:01;;;;;;;21.37;12.63;;;-2.50;56.40;;;;;;5078697;28;20271;-58
2022/03/07 05:49:26;;;;;;;22.20;13.10;;;-2.50;56.60;;;;;;5077700;28;20876;-63
2022/03/07 05:51:52;;;;;;;24.13;12.63;;;-2.50;56.70;;;;;;5085859;28;20199;-57
2022/03/07 05:54:17;;;;;;;21.60;12.33;;;-2.50;56.80;;;;;;5081651;28;20193;-59
2022/03/07 05:56:43;;;;;;;26.53;12.30;;;-2.50;56.90;;;;;;5079078;28;20214;-60
2022/03/07 05:59:09;;;;;;;29.37;11.70;;;-2.60;57.10;;;;;;5089448;28;20231;-58
2022/03/07 06:01:35;;;;;;;19.97;11.70;;;-2.60;57.10;;;;;;5085039;28;20336;-58
2022/03/07 06:04:00;;;;;;;20.90;12.23;;;-2.50;57.20;;;;;;5085354;28;20258;-57
2022/03/07 06:06:26;;;;;;;19.90;12.10;;;-2.60;57.20;;;;;;5088559;28;20584;-59
2022/03/07 06:08:52;;;;;;;20.50;11.70;;;-2.60;57.30;;;;;;5082990;28;20706;-58
2022/03/07 06:11:17;;;;;;;23.40;12.57;;;-2.60;57.40;;;;;;5082427;28;20195;-57
2022/03/07 06:13:43;;;;;;;24.80;12.67;;;-2.60;57.60;;;;;;5095368;28;20883;-58
2022/03/07 06:16:09;;;;;;;25.50;12.90;;;-2.60;57.70;;;;;;5096987;28;20203;-59
2022/03/07 06:18:34;;;;;;;20.47;12.07;;;-2.60;57.90;;;;;;5086179;28;20180;-59
2022/03/07 06:21:00;;;;;;;23.23;11.97;;;-2.70;58.00;;;;;;5087377;28;20260;-59
2022/03/07 06:23:26;;;;;;;19.27;11.70;;;-2.60;58.10;;;;;;5074220;28;20207;-59
2022/03/07 06:25:51;;;;;;;25.90;12.70;;;-2.60;58.10;;;;;;5107557;28;20186;-59
2022/03/07 06:28:17;;;;;;;20.37;12.70;;;-2.60;58.30;;;;;;5091611;28;20181;-58
2022/03/07 06:30:46;;;;;;;20.83;11.90;;;-2.60;58.30;;;;;;5091050;28;20208;-59
2022/03/07 06:33:13;;;;;;;29.13;12.57;;;-2.60;58.50;;;;;;5076580;28;20210;-59
2022/03/07 06:35:39;;;;;;;27.80;13.57;;;-2.60;58.70;;;;;;5077783;28;20516;-58
2022/03/07 06:38:04;;;;;;;20.57;13.00;;;-2.70;58.80;;;;;;5092159;28;20508;-58
2022/03/07 06:40:31;;;;;;;22.40;12.00;;;-2.70;58.90;;;;;;5085336;28;20200;-58
2022/03/07 06:42:57;;;;;;;30.00;12.43;;;-2.70;59.20;;;;;;5088656;28;20243;-58
2022/03/07 06:45:23;;;;;;;22.43;12.40;;;-2.70;59.50;;;;;;5085084;28;20515;-58
2022/03/07 06:47:49;;;;;;;20.97;12.50;;;-2.70;59.60;;;;;;5077544;28;20708;-58
2022/03/07 06:50:16;;;;;;;21.70;13.00;;;-2.60;60.00;;;;;;5092558;28;20542;-57
2022/03/07 06:52:42;;;;;;;21.57;12.53;;;-2.60;59.50;;;;;;5093549;28;20177;-58
2022/03/07 06:55:08;;;;;;;25.17;12.53;;;-2.50;59.50;;;;;;5088537;28;20421;-57
2022/03/07 06:57:34;;;;;;;20.40;12.73;;;-2.50;59.70;;;;;;5082221;28;20958;-58
2022/03/07 06:59:59;;;;;;;25.20;12.80;;;-2.40;59.60;;;;;;5080575;28;20420;-58
2022/03/07 07:02:25;;;;;;;23.27;12.77;;;-2.40;59.30;;;;;;5095646;28;20185;-59
2022/03/07 07:04:51;;;;;;;22.50;12.70;;;-2.30;59.40;;;;;;5074359;28;20176;-59
2022/03/07 07:07:16;;;;;;;21.83;12.93;;;-2.30;59.30;;;;;;5087910;28;20548;-58
2022/03/07 07:09:42;;;;;;;21.97;12.87;;;-2.30;59.30;;;;;;5086121;28;20262;-59
2022/03/07 07:12:08;;;;;;;20.57;12.73;;;-2.30;59.20;;;;;;5092869;28;20264;-59
2022/03/07 07:14:34;;;;;;;22.90;12.87;;;-2.20;59.20;;;;;;5095436;28;20587;-58
2022/03/07 07:17:00;;;;;;;19.00;11.77;;;-2.10;59.00;;;;;;5080150;28;20454;-59
2022/03/07 07:19:26;;;;;;;25.37;13.50;;;-2.10;58.70;;;;;;5084850;28;20630;-59
2022/03/07 07:21:52;;;;;;;24.30;12.20;;;-2.10;58.50;;;;;;5092881;28;20495;-59
2022/03/07 07:24:17;;;;;;;21.77;13.30;;;-2.10;58.50;;;;;;5087916;28;20461;-59
2022/03/07 07:26:43;;;;;;;21.77;12.90;;;-2.00;58.70;;;;;;5087273;28;20186;-58
2022/03/07 07:29:09;;;;;;;22.50;13.03;;;-1.90;58.40;;;;;;5082477;28;20916;-58
2022/03/07 07:31:34;;;;;;;23.90;13.67;;;-1.90;58.40;;;;;;5076865;28;20757;-58
2022/03/07 07:34:00;;;;;;;30.00;14.10;;;-1.80;58.40;;;;;;5082000;28;20263;-57
2022/03/07 07:36:25;;;;;;;23.43;12.87;;;-1.80;58.10;;;;;;5093233;28;20556;-59
2022/03/07 07:38:51;;;;;;;27.00;13.67;;;-1.70;57.90;;;;;;5097928;28;20588;-59
2022/03/07 07:41:17;;;;;;;21.10;13.17;;;-1.70;57.80;;;;;;5092451;28;20218;-58
2022/03/07 07:43:42;;;;;;;25.80;14.70;;;-1.60;57.90;;;;;;5091901;28;20495;-59
2022/03/07 07:46:08;;;;;;;19.90;12.17;;;-1.50;57.40;;;;;;5087896;28;20179;-58
2022/03/07 07:48:34;;;;;;;24.40;13.40;;;-1.50;57.30;;;;;;5096072;28;20561;-60
2022/03/07 07:50:59;;;;;;;25.57;14.30;;;-1.40;57.10;;;;;;5087996;28;20195;-59
2022/03/07 07:53:25;;;;;;;25.67;14.00;;;-1.30;56.80;;;;;;5096088;28;20592;-59
2022/03/07 07:55:51;;;;;;;23.70;14.37;;;-1.30;56.60;;;;;;5085387;28;20394;-59
2022/03/07 07:58:16;;;;;;;24.83;13.60;;;-1.30;56.60;;;;;;5078781;28;20167;-58
2022/03/07 08:00:42;;;;;;;20.30;12.80;;;-1.30;56.50;;;;;;5087863;28;20190;-60
2022/03/07 08:03:08;;;;;;;21.63;13.03;;;-1.20;56.60;;;;;;5093367;28;20496;-60
2022/03/07 08:05:34;;;;;;;27.60;14.20;;;-1.10;56.50;;;;;;5090306;28;20506;-61
2022/03/07 08:08:00;;;;;;;29.80;15.40;;;-1.00;56.30;;;;;;5109200;28;20408;-59
2022/03/07 08:10:25;;;;;;;28.87;14.10;;;-1.00;56.10;;;;;;5094922;28;20664;-59
2022/03/07 08:12:51;;;;;;;24.57;14.70;;;-0.90;56.00;;;;;;5075029;28;20444;-60
2022/03/07 08:15:17;;;;;;;29.57;15.27;;;-0.90;55.90;;;;;;5082450;28;20176;-60
2022/03/07 08:17:49;;;;;;;25.40;14.53;;;-0.80;55.60;;;;;;5085184;28;20167;-59
2022/03/07 08:20:20;;;;;;;25.33;14.00;;;-0.70;55.50;;;;;;5104204;28;20217;-61
2022/03/07 08:22:46;;;;;;;25.73;14.33;;;-0.60;55.50;;;;;;5091497;28;20425;-60
2022/03/07 08:25:13;;;;;;;22.77;14.53;;;-0.60;55.30;;;;;;5086547;28;20435;-59
2022/03/07 08:27:38;;;;;;;28.53;14.80;;;-0.50;55.00;;;;;;5084275;28;20428;-59
2022/03/07 08:30:07;;;;;;;24.17;14.10;;;-0.50;54.80;;;;;;5083033;28;21019;-60
2022/03/07 08:32:34;;;;;;;27.03;14.97;;;-0.40;54.80;;;;;;5086100;28;20487;-60
2022/03/07 08:35:00;;;;;;;24.43;14.57;;;-0.30;54.80;;;;;;5085691;28;20500;-60
2022/03/07 08:37:26;;;;;;;25.90;14.90;;;-0.30;54.50;;;;;;5088518;28;20880;-59
2022/03/07 08:39:52;;;;;;;28.27;16.03;;;-0.30;54.20;;;;;;5086380;28;20525;-61
2022/03/07 08:42:19;;;;;;;26.60;14.10;;;-0.20;54.40;;;;;;5090875;28;20190;-60
2022/03/07 08:44:45;;;;;;;24.77;14.67;;;-0.10;54.40;;;;;;5088670;28;20233;-61
2022/03/07 08:47:11;;;;;;;29.03;15.90;;;0.00;54.30;;;;;;5090567;28;21029;-60
2022/03/07 08:49:37;;;;;;;25.07;13.50;;;0.10;54.10;;;;;;5095076;28;20435;-60
2022/03/07 08:52:04;;;;;;;24.87;15.33;;;0.20;53.70;;;;;;5083323;28;20461;-60
2022/03/07 08:54:29;;;;;;;27.47;16.60;;;0.20;53.60;;;;;;5098435;28;20418;-59
2022/03/07 08:56:55;;;;;;;26.40;14.90;;;0.30;53.40;;;;;;5090981;28;20477;-61
2022/03/07 08:59:21;;;;;;;25.70;16.03;;;0.40;53.30;;;;;;5098142;28;20254;-59
2022/03/07 09:01:47;;;;;;;24.37;15.67;;;0.50;53.20;;;;;;5084395;28;20200;-59
2022/03/07 09:04:12;;;;;;;29.40;13.87;;;0.60;53.00;;;;;;5097365;28;20176;-60
2022/03/07 09:06:38;;;;;;;26.33;15.57;;;0.60;52.50;;;;;;5090297;28;20181;-58
2022/03/07 09:09:04;;;;;;;26.70;15.30;;;0.70;52.00;;;;;;5091285;28;20180;-60
2022/03/07 09:11:29;;;;;;;27.07;14.63;;;0.80;51.70;;;;;;5094664;28;20275;-59
2022/03/07 09:13:55;;;;;;;27.57;16.50;;;0.80;51.70;;;;;;5095073;28;20528;-61
2022/03/07 09:16:21;;;;;;;30.60;15.30;;;0.90;51.40;;;;;;5099545;28;20213;-60
2022/03/07 09:18:46;;;;;;;26.13;14.63;;;1.00;51.50;;;;;;5098188;28;20319;-60
2022/03/07 09:21:12;;;;;;;24.30;15.47;;;1.10;51.50;;;;;;5106944;28;20211;-61
2022/03/07 09:23:38;;;;;;;25.07;15.50;;;1.10;50.80;;;;;;5088009;28;20187;-60
2022/03/07 09:26:09;;;;;;;22.93;13.73;;;1.20;50.30;;;;;;5081434;28;20266;-60
2022/03/07 09:28:35;;;;;;;29.03;15.17;;;1.30;50.10;;;;;;5090639;28;20241;-58
2022/03/07 09:31:01;;;;;;;23.90;14.20;;;1.40;50.10;;;;;;5099417;28;20445;-60
2022/03/07 09:33:28;;;;;;;27.97;15.50;;;1.50;50.00;;;;;;5092920;28;20945;-60
2022/03/07 09:35:54;;;;;;;34.77;15.17;;;1.60;50.10;;;;;;5080661;28;20457;-59
2022/03/07 09:38:20;;;;;;;25.43;14.90;;;1.70;49.70;;;;;;5087113;28;20434;-60
2022/03/07 09:40:46;;;;;;;26.60;13.60;;;1.80;49.50;;;;;;5079624;28;20914;-59
2022/03/07 09:43:13;;;;;;;26.90;16.00;;;1.80;49.00;;;;;;5097655;28;20176;-57
2022/03/07 09:45:38;;;;;;;28.37;15.07;;;1.90;49.30;;;;;;5088675;28;20429;-58
2022/03/07 09:48:05;;;;;;;25.33;14.00;;;2.00;48.70;;;;;;5093371;28;20442;-58
2022/03/07 09:50:31;;;;;;;24.70;14.73;;;2.10;48.90;;;;;;5087974;28;20205;-59
2022/03/07 09:52:56;;;;;;;25.00;15.10;;;2.20;48.20;;;;;;5084376;28;20853;-58
2022/03/07 09:55:22;;;;;;;26.50;15.43;;;2.30;47.90;;;;;;5088484;28;20182;-58
2022/03/07 09:57:49;;;;;;;20.63;14.80;;;2.40;47.60;;;;;;5079051;28;20179;-60
2022/03/07 10:00:17;;;;;;;29.53;15.80;;;2.40;47.00;;;;;;5088760;28;20965;-59
2022/03/07 10:02:57;;;;;;;26.87;14.37;;;2.50;47.20;;;;;;5086431;28;20407;-60
2022/03/07 10:05:26;;;;;;;25.80;15.00;;;2.50;47.00;;;;;;5101891;28;20702;-59
2022/03/07 10:07:52;;;;;;;27.50;15.13;;;2.60;47.10;;;;;;5096230;28;20433;-60
2022/03/07 10:10:18;;;;;;;22.20;13.73;;;2.70;47.30;;;;;;5091072;28;20454;-60
2022/03/07 10:12:46;;;;;;;27.77;14.50;;;2.80;47.30;;;;;;5090575;28;20649;-61
2022/03/07 10:15:13;;;;;;;26.33;14.37;;;3.00;47.20;;;;;;5085361;28;20435;-61
2022/03/07 10:17:45;;;;;;;26.07;15.57;;;3.10;46.60;;;;;;5087869;28;20412;-61
2022/03/07 10:20:19;;;;;;;29.17;14.60;;;3.10;46.20;;;;;;5087178;28;20441;-62
2022/03/07 10:22:52;;;;;;;22.20;14.63;;;3.20;45.70;;;;;;5086033;28;20410;-61
2022/03/07 10:25:25;;;;;;;22.40;14.00;;;3.30;45.20;;;;;;5078938;28;20431;-61
2022/03/07 10:27:52;;;;;;;21.23;14.50;;;3.40;45.20;;;;;;5089371;28;20889;-61
2022/03/07 10:30:38;;;;;;;23.63;14.30;;;3.50;45.40;;;;;;5088906;28;20447;-61
2022/03/07 10:33:09;;;;;;;26.13;14.40;;;3.60;44.70;;;;;;5077051;28;20418;-59
2022/03/07 10:35:36;;;;;;;21.33;14.50;;;3.70;43.70;;;;;;5082593;28;20511;-60
2022/03/07 10:38:08;;;;;;;23.07;14.33;;;3.70;43.50;;;;;;5092128;28;20412;-61
2022/03/07 10:40:36;;;;;;;25.00;13.77;;;3.90;43.40;;;;;;5106342;28;20442;-60
2022/03/07 10:43:04;;;;;;;26.60;14.97;;;3.90;42.90;;;;;;5082391;28;20430;-61
2022/03/07 10:45:31;;;;;;;23.60;14.70;;;4.00;42.70;;;;;;5084912;28;20424;-61
2022/03/07 10:48:01;;;;;;;23.20;14.10;;;4.00;42.60;;;;;;5089887;28;20642;-60
2022/03/07 10:50:29;;;;;;;27.00;14.90;;;4.10;42.80;;;;;;5094650;28;20473;-61
2022/03/07 10:53:01;;;;;;;23.23;13.63;;;4.20;42.50;;;;;;5110068;28;20422;-61
2022/03/07 10:55:28;;;;;;;23.70;13.83;;;4.30;42.50;;;;;;5099437;28;20418;-61
2022/03/07 10:58:05;;;;;;;23.80;14.17;;;4.30;42.40;;;;;;5110293;28;20421;-60
2022/03/07 11:00:31;;;;;;;23.53;13.43;;;4.40;42.30;;;;;;5094255;28;20507;-60
2022/03/07 11:02:56;;;;;;;23.57;13.63;;;4.50;42.20;;;;;;5093329;28;20419;-61
2022/03/07 11:05:22;;;;;;;19.83;13.20;;;4.60;42.40;;;;;;5098626;28;20173;-61
2022/03/07 11:07:51;;;;;;;18.93;12.33;;;4.40;41.10;;;;;;5089548;28;20649;-62
2022/03/07 11:10:17;;;;;;;23.77;15.07;;;4.40;41.50;;;;;;5070546;28;20440;-61
2022/03/07 11:12:44;;;;;;;22.23;13.83;;;4.60;41.90;;;;;;5076379;28;20500;-60
2022/03/07 11:15:14;;;;;;;21.63;12.83;;;4.80;41.80;;;;;;5087164;28;20442;-62
2022/03/07 11:17:44;;;;;;;22.70;14.80;;;4.90;40.90;;;;;;5082424;28;20867;-61
2022/03/07 11:20:14;;;;;;;19.53;13.03;;;4.80;40.20;;;;;;5084888;28;20463;-61
2022/03/07 11:22:40;;;;;;;28.27;14.03;;;4.60;40.60;;;;;;5090504;28;20485;-61
2022/03/07 11:25:07;;;;;;;26.33;13.90;;;4.60;41.20;;;;;;5078806;28;20428;-61
2022/03/07 11:27:35;;;;;;;20.87;12.93;;;4.90;41.20;;;;;;5069385;28;20205;-62
2022/03/07 11:30:19;;;;;;;22.70;14.77;;;5.20;40.70;;;;;;5091056;28;20435;-61
2022/03/07 11:32:45;;;;;;;18.90;12.97;;;5.60;40.40;;;;;;5082160;28;20428;-62
2022/03/07 11:35:12;;;;;;;23.10;13.77;;;5.90;39.40;;;;;;5067901;28;20432;-62
2022/03/07 11:37:37;;;;;;;21.60;13.30;;;6.00;38.90;;;;;;5089694;28;20439;-61
2022/03/07 11:40:19;;;;;;;24.40;14.37;;;6.30;39.00;;;;;;5096482;28;21024;-61
2022/03/07 11:42:45;;;;;;;27.53;13.30;;;6.30;38.10;;;;;;5086492;28;20285;-61
2022/03/07 11:45:18;;;;;;;24.87;13.87;;;6.00;37.70;;;;;;5077829;28;20874;-61
2022/03/07 11:47:46;;;;;;;27.27;15.00;;;5.90;37.80;;;;;;5089610;28;20181;-62
2022/03/07 11:50:12;;;;;;;21.93;13.73;;;5.80;37.90;;;;;;5091851;28;20824;-60
2022/03/07 11:52:38;;;;;;;23.30;13.33;;;5.80;37.70;;;;;;5084148;28;20443;-62
2022/03/07 11:55:10;;;;;;;18.73;13.37;;;5.90;37.60;;;;;;5076688;28;20436;-61
2022/03/07 11:57:48;;;;;;;21.20;13.07;;;6.40;37.90;;;;;;5079372;28;20462;-62
2022/03/07 12:00:14;;;;;;;29.83;13.50;;;7.20;37.80;;;;;;5083122;28;20467;-62
2022/03/07 12:02:42;;;;;;;19.37;13.40;;;8.00;36.70;;;;;;5078747;28;20475;-62
2022/03/07 12:05:23;;;;;;;24.97;12.97;;;8.80;36.10;;;;;;5078545;28;20184;-62
2022/03/07 12:07:49;;;;;;;23.33;13.53;;;9.30;34.50;;;;;;5091472;28;20506;-61
2022/03/07 12:10:14;;;;;;;20.97;13.03;;;9.80;33.30;;;;;;5086410;28;20539;-62
2022/03/07 12:12:40;;;;;;;20.23;14.50;;;10.20;31.70;;;;;;5079704;28;20630;-63
2022/03/07 12:15:10;;;;;;;21.33;13.70;;;10.10;31.20;;;;;;5082746;28;20474;-62
2022/03/07 12:17:35;;;;;;;16.87;12.47;;;9.70;32.00;;;;;;5078626;28;20413;-62
2022/03/07 12:20:02;;;;;;;21.10;14.70;;;9.10;32.00;;;;;;5082160;28;21021;-61
2022/03/07 12:22:29;;;;;;;24.13;14.77;;;8.80;33.10;;;;;;5082427;28;20182;-61
2022/03/07 12:25:00;;;;;;;23.23;12.70;;;8.70;33.20;;;;;;5079984;28;20495;-62
2022/03/07 12:27:26;;;;;;;17.97;13.00;;;8.80;33.10;;;;;;5079179;28;20781;-62